sensor_id;sensor_type;location;lat;lon;timestamp;P1;durP1;ratioP1;P2;durP2;ratioP2
15706;SDS011;7953;54.302;10.128;2022-07-06T00:02:25;3.70;;;1.20;;
15706;SDS011;7953;54.302;10.128;2022-07-06T00:04:52;2.17;;;1.30;;
15706;SDS011;7953;54.302;10.128;2022-07-06T00:07:19;3.90;;;1.80;;
15706;SDS011;7953;54.302;10.128;2022-07-06T00:09:49;5.43;;;1.60;;
15706;SDS011;7953;54.302;10.128;2022-07-06T00:12:16;3.03;;;1.33;;
15706;SDS011;7953;54.302;10.128;2022-07-06T00:14:43;2.47;;;1.60;;
15706;SDS011;7953;54.302;10.128;2022-07-06T00:17:10;3.77;;;1.40;;
15706;SDS011;7953;54.302;10.128;2022-07-06T00:19:37;2.47;;;1.40;;
15706;SDS011;7953;54.302;10.128;2022-07-06T00:22:03;4.27;;;1.30;;
15706;SDS011;7953;54.302;10.128;2022-07-06T00:24:30;3.27;;;1.50;;
15706;SDS011;7953;54.302;10.128;2022-07-06T00:26:59;1.10;;;1.00;;
15706;SDS011;7953;54.302;10.128;2022-07-06T00:29:25;3.20;;;1.57;;
15706;SDS011;7953;54.302;10.128;2022-07-06T00:31:52;4.77;;;1.20;;
15706;SDS011;7953;54.302;10.128;2022-07-06T00:34:19;1.87;;;1.23;;
15706;SDS011;7953;54.302;10.128;2022-07-06T00:36:46;5.73;;;1.20;;
15706;SDS011;7953;54.302;10.128;2022-07-06T00:39:13;3.53;;;1.50;;
15706;SDS011;7953;54.302;10.128;2022-07-06T00:41:40;2.80;;;1.30;;
15706;SDS011;7953;54.302;10.128;2022-07-06T00:44:08;3.57;;;1.70;;
15706;SDS011;7953;54.302;10.128;2022-07-06T00:46:35;4.63;;;1.70;;
15706;SDS011;7953;54.302;10.128;2022-07-06T00:49:02;2.17;;;1.10;;
15706;SDS011;7953;54.302;10.128;2022-07-06T00:51:34;3.57;;;1.40;;
15706;SDS011;7953;54.302;10.128;2022-07-06T00:54:04;4.40;;;1.40;;
15706;SDS011;7953;54.302;10.128;2022-07-06T00:56:31;3.60;;;1.10;;
15706;SDS011;7953;54.302;10.128;2022-07-06T00:58:59;3.87;;;1.20;;
15706;SDS011;7953;54.302;10.128;2022-07-06T01:01:28;5.10;;;1.40;;
15706;SDS011;7953;54.302;10.128;2022-07-06T01:03:55;1.97;;;1.30;;
15706;SDS011;7953;54.302;10.128;2022-07-06T01:06:22;4.50;;;1.30;;
15706;SDS011;7953;54.302;10.128;2022-07-06T01:08:49;3.07;;;1.27;;
15706;SDS011;7953;54.302;10.128;2022-07-06T01:11:17;3.30;;;1.23;;
15706;SDS011;7953;54.302;10.128;2022-07-06T01:13:45;4.27;;;1.20;;
15706;SDS011;7953;54.302;10.128;2022-07-06T01:16:13;4.13;;;1.43;;
15706;SDS011;7953;54.302;10.128;2022-07-06T01:18:42;4.27;;;1.10;;
15706;SDS011;7953;54.302;10.128;2022-07-06T01:21:11;4.50;;;1.20;;
15706;SDS011;7953;54.302;10.128;2022-07-06T01:23:39;2.63;;;1.67;;
15706;SDS011;7953;54.302;10.128;2022-07-06T01:26:08;4.90;;;2.07;;
15706;SDS011;7953;54.302;10.128;2022-07-06T01:28:39;1.93;;;1.10;;
15706;SDS011;7953;54.302;10.128;2022-07-06T01:31:13;3.30;;;1.33;;
15706;SDS011;7953;54.302;10.128;2022-07-06T01:33:41;5.30;;;1.90;;
15706;SDS011;7953;54.302;10.128;2022-07-06T01:36:08;3.43;;;1.00;;
15706;SDS011;7953;54.302;10.128;2022-07-06T01:38:43;3.50;;;1.40;;
15706;SDS011;7953;54.302;10.128;2022-07-06T01:41:11;3.00;;;1.60;;
15706;SDS011;7953;54.302;10.128;2022-07-06T01:43:38;8.83;;;1.53;;
15706;SDS011;7953;54.302;10.128;2022-07-06T01:46:05;3.23;;;1.20;;
15706;SDS011;7953;54.302;10.128;2022-07-06T01:48:32;2.13;;;1.07;;
15706;SDS011;7953;54.302;10.128;2022-07-06T01:50:59;8.37;;;1.20;;
15706;SDS011;7953;54.302;10.128;2022-07-06T01:53:27;2.50;;;1.13;;
15706;SDS011;7953;54.302;10.128;2022-07-06T01:55:54;3.07;;;1.30;;
15706;SDS011;7953;54.302;10.128;2022-07-06T01:58:21;3.87;;;1.23;;
15706;SDS011;7953;54.302;10.128;2022-07-06T02:00:48;4.30;;;1.17;;
15706;SDS011;7953;54.302;10.128;2022-07-06T02:03:16;3.10;;;1.10;;
15706;SDS011;7953;54.302;10.128;2022-07-06T02:05:43;3.30;;;1.17;;
15706;SDS011;7953;54.302;10.128;2022-07-06T02:08:09;3.37;;;1.20;;
15706;SDS011;7953;54.302;10.128;2022-07-06T02:10:38;2.03;;;1.13;;
15706;SDS011;7953;54.302;10.128;2022-07-06T02:13:05;1.53;;;1.10;;
15706;SDS011;7953;54.302;10.128;2022-07-06T02:15:32;3.20;;;1.20;;
15706;SDS011;7953;54.302;10.128;2022-07-06T02:17:59;1.60;;;0.90;;
15706;SDS011;7953;54.302;10.128;2022-07-06T02:20:26;3.20;;;1.40;;
15706;SDS011;7953;54.302;10.128;2022-07-06T02:22:52;4.43;;;1.53;;
15706;SDS011;7953;54.302;10.128;2022-07-06T02:25:19;1.80;;;1.20;;
15706;SDS011;7953;54.302;10.128;2022-07-06T02:27:48;5.47;;;1.33;;
15706;SDS011;7953;54.302;10.128;2022-07-06T02:30:15;2.83;;;1.20;;
15706;SDS011;7953;54.302;10.128;2022-07-06T02:32:42;3.57;;;1.60;;
15706;SDS011;7953;54.302;10.128;2022-07-06T02:35:09;6.03;;;1.43;;
15706;SDS011;7953;54.302;10.128;2022-07-06T02:37:36;7.23;;;2.27;;
15706;SDS011;7953;54.302;10.128;2022-07-06T02:40:03;2.77;;;1.30;;
15706;SDS011;7953;54.302;10.128;2022-07-06T02:42:31;4.00;;;1.20;;
15706;SDS011;7953;54.302;10.128;2022-07-06T02:44:59;2.83;;;1.17;;
15706;SDS011;7953;54.302;10.128;2022-07-06T02:47:26;7.10;;;1.70;;
15706;SDS011;7953;54.302;10.128;2022-07-06T02:49:53;5.90;;;1.33;;
15706;SDS011;7953;54.302;10.128;2022-07-06T02:52:20;4.87;;;0.90;;
15706;SDS011;7953;54.302;10.128;2022-07-06T02:54:46;1.23;;;0.97;;
15706;SDS011;7953;54.302;10.128;2022-07-06T02:57:13;6.00;;;1.50;;
15706;SDS011;7953;54.302;10.128;2022-07-06T02:59:41;2.80;;;1.10;;
15706;SDS011;7953;54.302;10.128;2022-07-06T03:02:09;2.83;;;1.27;;
15706;SDS011;7953;54.302;10.128;2022-07-06T03:04:36;4.90;;;1.10;;
15706;SDS011;7953;54.302;10.128;2022-07-06T03:07:03;2.20;;;1.00;;
15706;SDS011;7953;54.302;10.128;2022-07-06T03:09:30;2.70;;;1.23;;
15706;SDS011;7953;54.302;10.128;2022-07-06T03:11:57;2.57;;;1.17;;
15706;SDS011;7953;54.302;10.128;2022-07-06T03:14:24;2.67;;;1.30;;
15706;SDS011;7953;54.302;10.128;2022-07-06T03:16:51;3.23;;;1.00;;
15706;SDS011;7953;54.302;10.128;2022-07-06T03:19:20;3.00;;;0.93;;
15706;SDS011;7953;54.302;10.128;2022-07-06T03:21:47;2.07;;;0.83;;
15706;SDS011;7953;54.302;10.128;2022-07-06T03:24:14;8.00;;;1.40;;
15706;SDS011;7953;54.302;10.128;2022-07-06T03:26:41;5.00;;;1.10;;
15706;SDS011;7953;54.302;10.128;2022-07-06T03:29:08;1.90;;;1.20;;
15706;SDS011;7953;54.302;10.128;2022-07-06T03:31:35;4.53;;;1.00;;
15706;SDS011;7953;54.302;10.128;2022-07-06T03:34:02;3.00;;;0.97;;
15706;SDS011;7953;54.302;10.128;2022-07-06T03:36:30;2.17;;;1.20;;
15706;SDS011;7953;54.302;10.128;2022-07-06T03:38:57;2.17;;;0.73;;
15706;SDS011;7953;54.302;10.128;2022-07-06T03:41:24;3.23;;;1.07;;
15706;SDS011;7953;54.302;10.128;2022-07-06T03:43:51;5.13;;;1.30;;
15706;SDS011;7953;54.302;10.128;2022-07-06T03:46:18;2.97;;;1.00;;
15706;SDS011;7953;54.302;10.128;2022-07-06T03:48:45;3.73;;;1.00;;
15706;SDS011;7953;54.302;10.128;2022-07-06T03:51:12;2.23;;;1.00;;
15706;SDS011;7953;54.302;10.128;2022-07-06T03:53:40;2.07;;;0.90;;
15706;SDS011;7953;54.302;10.128;2022-07-06T03:56:07;6.70;;;1.20;;
15706;SDS011;7953;54.302;10.128;2022-07-06T03:58:52;3.43;;;1.30;;
15706;SDS011;7953;54.302;10.128;2022-07-06T04:01:19;1.97;;;1.00;;
15706;SDS011;7953;54.302;10.128;2022-07-06T04:03:46;3.97;;;1.20;;
15706;SDS011;7953;54.302;10.128;2022-07-06T04:06:13;2.60;;;1.00;;
15706;SDS011;7953;54.302;10.128;2022-07-06T04:08:41;2.27;;;1.00;;
15706;SDS011;7953;54.302;10.128;2022-07-06T04:11:08;5.70;;;1.30;;
15706;SDS011;7953;54.302;10.128;2022-07-06T04:13:35;2.00;;;1.10;;
15706;SDS011;7953;54.302;10.128;2022-07-06T04:16:02;4.83;;;1.87;;
15706;SDS011;7953;54.302;10.128;2022-07-06T04:18:29;4.57;;;1.27;;
15706;SDS011;7953;54.302;10.128;2022-07-06T04:20:56;3.60;;;1.03;;
15706;SDS011;7953;54.302;10.128;2022-07-06T04:23:23;4.07;;;1.13;;
15706;SDS011;7953;54.302;10.128;2022-07-06T04:25:52;3.53;;;1.10;;
15706;SDS011;7953;54.302;10.128;2022-07-06T04:28:19;3.90;;;1.50;;
15706;SDS011;7953;54.302;10.128;2022-07-06T04:30:45;2.17;;;0.83;;
15706;SDS011;7953;54.302;10.128;2022-07-06T04:33:12;4.83;;;1.30;;
15706;SDS011;7953;54.302;10.128;2022-07-06T04:35:39;2.53;;;0.97;;
15706;SDS011;7953;54.302;10.128;2022-07-06T04:38:06;1.40;;;0.87;;
15706;SDS011;7953;54.302;10.128;2022-07-06T04:40:33;3.27;;;1.20;;
15706;SDS011;7953;54.302;10.128;2022-07-06T04:43:02;4.87;;;1.70;;
15706;SDS011;7953;54.302;10.128;2022-07-06T04:45:29;2.77;;;1.30;;
15706;SDS011;7953;54.302;10.128;2022-07-06T04:47:55;2.00;;;1.00;;
15706;SDS011;7953;54.302;10.128;2022-07-06T04:50:22;2.93;;;1.33;;
15706;SDS011;7953;54.302;10.128;2022-07-06T04:52:49;4.00;;;1.20;;
15706;SDS011;7953;54.302;10.128;2022-07-06T04:55:16;7.07;;;1.53;;
15706;SDS011;7953;54.302;10.128;2022-07-06T04:57:44;5.60;;;1.47;;
15706;SDS011;7953;54.302;10.128;2022-07-06T05:00:13;3.20;;;1.43;;
15706;SDS011;7953;54.302;10.128;2022-07-06T05:02:40;3.80;;;1.27;;
15706;SDS011;7953;54.302;10.128;2022-07-06T05:05:07;4.57;;;1.20;;
15706;SDS011;7953;54.302;10.128;2022-07-06T05:07:35;5.73;;;1.10;;
15706;SDS011;7953;54.302;10.128;2022-07-06T05:10:05;4.07;;;1.10;;
15706;SDS011;7953;54.302;10.128;2022-07-06T05:12:33;3.23;;;1.27;;
15706;SDS011;7953;54.302;10.128;2022-07-06T05:15:00;3.93;;;1.03;;
15706;SDS011;7953;54.302;10.128;2022-07-06T05:17:29;4.13;;;1.10;;
15706;SDS011;7953;54.302;10.128;2022-07-06T05:19:56;5.67;;;1.23;;
15706;SDS011;7953;54.302;10.128;2022-07-06T05:22:23;6.43;;;1.30;;
15706;SDS011;7953;54.302;10.128;2022-07-06T05:24:50;5.30;;;1.33;;
15706;SDS011;7953;54.302;10.128;2022-07-06T05:27:17;3.00;;;1.13;;
15706;SDS011;7953;54.302;10.128;2022-07-06T05:29:44;3.43;;;1.23;;
15706;SDS011;7953;54.302;10.128;2022-07-06T05:32:11;5.67;;;1.13;;
15706;SDS011;7953;54.302;10.128;2022-07-06T05:34:39;1.87;;;0.80;;
15706;SDS011;7953;54.302;10.128;2022-07-06T05:37:06;2.03;;;0.90;;
15706;SDS011;7953;54.302;10.128;2022-07-06T05:39:33;3.33;;;0.90;;
15706;SDS011;7953;54.302;10.128;2022-07-06T05:42:00;4.27;;;1.03;;
15706;SDS011;7953;54.302;10.128;2022-07-06T05:44:27;2.43;;;0.90;;
15706;SDS011;7953;54.302;10.128;2022-07-06T05:46:53;3.23;;;1.37;;
15706;SDS011;7953;54.302;10.128;2022-07-06T05:49:42;4.07;;;1.10;;
15706;SDS011;7953;54.302;10.128;2022-07-06T05:52:27;1.70;;;0.80;;
15706;SDS011;7953;54.302;10.128;2022-07-06T05:54:54;1.87;;;0.87;;
15706;SDS011;7953;54.302;10.128;2022-07-06T05:57:21;3.03;;;0.83;;
15706;SDS011;7953;54.302;10.128;2022-07-06T05:59:48;1.77;;;1.00;;
15706;SDS011;7953;54.302;10.128;2022-07-06T06:02:15;5.60;;;1.47;;
15706;SDS011;7953;54.302;10.128;2022-07-06T06:04:43;2.13;;;0.70;;
15706;SDS011;7953;54.302;10.128;2022-07-06T06:07:10;2.73;;;0.93;;
15706;SDS011;7953;54.302;10.128;2022-07-06T06:09:37;2.07;;;1.00;;
15706;SDS011;7953;54.302;10.128;2022-07-06T06:12:04;1.23;;;0.70;;
15706;SDS011;7953;54.302;10.128;2022-07-06T06:14:31;2.20;;;0.73;;
15706;SDS011;7953;54.302;10.128;2022-07-06T06:16:58;2.83;;;1.07;;
15706;SDS011;7953;54.302;10.128;2022-07-06T06:19:25;1.70;;;0.73;;
15706;SDS011;7953;54.302;10.128;2022-07-06T06:21:54;4.27;;;1.23;;
15706;SDS011;7953;54.302;10.128;2022-07-06T06:24:21;2.90;;;1.13;;
15706;SDS011;7953;54.302;10.128;2022-07-06T06:26:49;2.97;;;1.03;;
15706;SDS011;7953;54.302;10.128;2022-07-06T06:29:16;2.67;;;0.93;;
15706;SDS011;7953;54.302;10.128;2022-07-06T06:31:42;3.10;;;1.10;;
15706;SDS011;7953;54.302;10.128;2022-07-06T06:34:09;2.73;;;0.70;;
15706;SDS011;7953;54.302;10.128;2022-07-06T06:36:36;0.93;;;0.70;;
15706;SDS011;7953;54.302;10.128;2022-07-06T06:39:04;1.57;;;0.80;;
15706;SDS011;7953;54.302;10.128;2022-07-06T06:41:31;1.67;;;0.80;;
15706;SDS011;7953;54.302;10.128;2022-07-06T06:43:58;2.37;;;0.87;;
15706;SDS011;7953;54.302;10.128;2022-07-06T06:46:25;5.60;;;1.00;;
15706;SDS011;7953;54.302;10.128;2022-07-06T06:48:52;2.27;;;0.83;;
15706;SDS011;7953;54.302;10.128;2022-07-06T06:51:19;2.90;;;0.87;;
15706;SDS011;7953;54.302;10.128;2022-07-06T06:53:46;3.23;;;1.00;;
15706;SDS011;7953;54.302;10.128;2022-07-06T06:56:15;2.70;;;0.87;;
15706;SDS011;7953;54.302;10.128;2022-07-06T06:58:42;3.13;;;0.77;;
15706;SDS011;7953;54.302;10.128;2022-07-06T07:01:09;1.17;;;0.80;;
15706;SDS011;7953;54.302;10.128;2022-07-06T07:03:35;3.37;;;0.73;;
15706;SDS011;7953;54.302;10.128;2022-07-06T07:06:02;5.77;;;0.90;;
15706;SDS011;7953;54.302;10.128;2022-07-06T07:08:29;3.07;;;1.00;;
15706;SDS011;7953;54.302;10.128;2022-07-06T07:10:56;2.17;;;0.83;;
15706;SDS011;7953;54.302;10.128;2022-07-06T07:13:25;2.43;;;1.00;;
15706;SDS011;7953;54.302;10.128;2022-07-06T07:15:51;2.23;;;0.80;;
15706;SDS011;7953;54.302;10.128;2022-07-06T07:18:18;9.70;;;1.40;;
15706;SDS011;7953;54.302;10.128;2022-07-06T07:20:45;5.07;;;1.37;;
15706;SDS011;7953;54.302;10.128;2022-07-06T07:23:12;1.10;;;0.80;;
15706;SDS011;7953;54.302;10.128;2022-07-06T07:25:39;1.53;;;0.80;;
15706;SDS011;7953;54.302;10.128;2022-07-06T07:28:06;2.50;;;1.10;;
15706;SDS011;7953;54.302;10.128;2022-07-06T07:30:35;2.47;;;1.10;;
15706;SDS011;7953;54.302;10.128;2022-07-06T07:33:02;1.57;;;0.90;;
15706;SDS011;7953;54.302;10.128;2022-07-06T07:35:29;2.17;;;0.80;;
15706;SDS011;7953;54.302;10.128;2022-07-06T07:37:55;2.30;;;1.07;;
15706;SDS011;7953;54.302;10.128;2022-07-06T07:40:22;4.30;;;0.90;;
15706;SDS011;7953;54.302;10.128;2022-07-06T07:42:49;2.47;;;1.00;;
15706;SDS011;7953;54.302;10.128;2022-07-06T07:45:16;2.17;;;0.97;;
15706;SDS011;7953;54.302;10.128;2022-07-06T07:47:44;2.80;;;0.90;;
15706;SDS011;7953;54.302;10.128;2022-07-06T07:50:11;1.73;;;0.90;;
15706;SDS011;7953;54.302;10.128;2022-07-06T07:52:38;2.73;;;0.90;;
15706;SDS011;7953;54.302;10.128;2022-07-06T07:55:06;4.63;;;0.97;;
15706;SDS011;7953;54.302;10.128;2022-07-06T07:57:33;3.10;;;0.80;;
15706;SDS011;7953;54.302;10.128;2022-07-06T08:00:00;1.60;;;0.83;;
15706;SDS011;7953;54.302;10.128;2022-07-06T08:02:27;3.23;;;0.80;;
15706;SDS011;7953;54.302;10.128;2022-07-06T08:04:55;5.20;;;1.03;;
15706;SDS011;7953;54.302;10.128;2022-07-06T08:07:22;4.60;;;0.80;;
15706;SDS011;7953;54.302;10.128;2022-07-06T08:09:49;2.97;;;1.07;;
15706;SDS011;7953;54.302;10.128;2022-07-06T08:12:16;2.63;;;1.00;;
15706;SDS011;7953;54.302;10.128;2022-07-06T08:14:43;3.00;;;0.83;;
15706;SDS011;7953;54.302;10.128;2022-07-06T08:17:10;3.33;;;0.70;;
15706;SDS011;7953;54.302;10.128;2022-07-06T08:19:36;1.80;;;0.67;;
15706;SDS011;7953;54.302;10.128;2022-07-06T08:22:05;4.13;;;0.93;;
15706;SDS011;7953;54.302;10.128;2022-07-06T08:24:33;1.97;;;0.77;;
15706;SDS011;7953;54.302;10.128;2022-07-06T08:27:00;2.47;;;0.90;;
15706;SDS011;7953;54.302;10.128;2022-07-06T08:29:28;2.13;;;0.60;;
15706;SDS011;7953;54.302;10.128;2022-07-06T08:31:55;3.33;;;0.93;;
15706;SDS011;7953;54.302;10.128;2022-07-06T08:34:22;1.67;;;0.90;;
15706;SDS011;7953;54.302;10.128;2022-07-06T08:36:49;2.30;;;1.00;;
15706;SDS011;7953;54.302;10.128;2022-07-06T08:39:17;1.90;;;0.60;;
15706;SDS011;7953;54.302;10.128;2022-07-06T08:41:44;2.23;;;0.77;;
15706;SDS011;7953;54.302;10.128;2022-07-06T08:44:14;2.67;;;1.23;;
15706;SDS011;7953;54.302;10.128;2022-07-06T08:46:42;2.13;;;0.90;;
15706;SDS011;7953;54.302;10.128;2022-07-06T08:49:12;1.93;;;0.80;;
15706;SDS011;7953;54.302;10.128;2022-07-06T08:51:42;1.63;;;0.60;;
15706;SDS011;7953;54.302;10.128;2022-07-06T08:54:11;3.33;;;0.80;;
15706;SDS011;7953;54.302;10.128;2022-07-06T08:56:39;2.33;;;1.00;;
15706;SDS011;7953;54.302;10.128;2022-07-06T08:59:07;1.53;;;1.03;;
15706;SDS011;7953;54.302;10.128;2022-07-06T09:01:36;3.60;;;1.10;;
15706;SDS011;7953;54.302;10.128;2022-07-06T09:04:05;1.60;;;0.83;;
15706;SDS011;7953;54.302;10.128;2022-07-06T09:06:33;2.77;;;0.90;;
15706;SDS011;7953;54.302;10.128;2022-07-06T09:09:00;3.50;;;0.97;;
15706;SDS011;7953;54.302;10.128;2022-07-06T09:11:32;2.27;;;1.00;;
15706;SDS011;7953;54.302;10.128;2022-07-06T09:14:01;2.53;;;0.80;;
15706;SDS011;7953;54.302;10.128;2022-07-06T09:16:29;4.07;;;0.93;;
15706;SDS011;7953;54.302;10.128;2022-07-06T09:18:57;3.63;;;1.10;;
15706;SDS011;7953;54.302;10.128;2022-07-06T09:21:24;2.47;;;0.87;;
15706;SDS011;7953;54.302;10.128;2022-07-06T09:23:53;2.30;;;0.60;;
15706;SDS011;7953;54.302;10.128;2022-07-06T09:26:21;5.53;;;1.33;;
15706;SDS011;7953;54.302;10.128;2022-07-06T09:28:48;2.23;;;0.67;;
15706;SDS011;7953;54.302;10.128;2022-07-06T09:31:16;0.97;;;0.60;;
15706;SDS011;7953;54.302;10.128;2022-07-06T09:33:53;2.00;;;0.83;;
15706;SDS011;7953;54.302;10.128;2022-07-06T09:39:14;1.97;;;0.87;;
15706;SDS011;7953;54.302;10.128;2022-07-06T09:41:45;1.33;;;0.67;;
15706;SDS011;7953;54.302;10.128;2022-07-06T09:44:12;2.40;;;1.00;;
15706;SDS011;7953;54.302;10.128;2022-07-06T09:46:46;0.83;;;0.50;;
15706;SDS011;7953;54.302;10.128;2022-07-06T09:49:16;1.00;;;0.70;;
15706;SDS011;7953;54.302;10.128;2022-07-06T09:51:44;3.90;;;0.80;;
15706;SDS011;7953;54.302;10.128;2022-07-06T09:54:11;1.67;;;0.80;;
15706;SDS011;7953;54.302;10.128;2022-07-06T09:56:39;2.37;;;0.77;;
15706;SDS011;7953;54.302;10.128;2022-07-06T09:59:10;3.33;;;0.70;;
15706;SDS011;7953;54.302;10.128;2022-07-06T10:01:37;2.33;;;0.67;;
15706;SDS011;7953;54.302;10.128;2022-07-06T10:04:06;0.73;;;0.70;;
15706;SDS011;7953;54.302;10.128;2022-07-06T10:06:34;2.30;;;0.70;;
15706;SDS011;7953;54.302;10.128;2022-07-06T10:09:02;3.60;;;0.93;;
15706;SDS011;7953;54.302;10.128;2022-07-06T10:11:33;4.70;;;1.10;;
15706;SDS011;7953;54.302;10.128;2022-07-06T10:14:04;3.43;;;1.07;;
15706;SDS011;7953;54.302;10.128;2022-07-06T10:16:33;2.93;;;0.90;;
15706;SDS011;7953;54.302;10.128;2022-07-06T10:19:03;3.40;;;0.87;;
15706;SDS011;7953;54.302;10.128;2022-07-06T10:21:34;1.60;;;0.80;;
15706;SDS011;7953;54.302;10.128;2022-07-06T10:24:03;2.87;;;0.70;;
15706;SDS011;7953;54.302;10.128;2022-07-06T10:26:31;1.47;;;0.60;;
15706;SDS011;7953;54.302;10.128;2022-07-06T10:28:59;2.27;;;0.90;;
15706;SDS011;7953;54.302;10.128;2022-07-06T10:31:27;0.97;;;0.70;;
15706;SDS011;7953;54.302;10.128;2022-07-06T10:33:55;6.03;;;1.30;;
15706;SDS011;7953;54.302;10.128;2022-07-06T10:36:23;3.50;;;1.43;;
15706;SDS011;7953;54.302;10.128;2022-07-06T10:38:52;1.20;;;0.80;;
15706;SDS011;7953;54.302;10.128;2022-07-06T10:41:29;2.23;;;0.77;;
15706;SDS011;7953;54.302;10.128;2022-07-06T10:43:56;3.20;;;0.80;;
15706;SDS011;7953;54.302;10.128;2022-07-06T10:46:23;2.67;;;1.07;;
15706;SDS011;7953;54.302;10.128;2022-07-06T10:48:54;2.77;;;0.77;;
15706;SDS011;7953;54.302;10.128;2022-07-06T10:51:24;2.70;;;0.80;;
15706;SDS011;7953;54.302;10.128;2022-07-06T10:53:56;3.17;;;0.70;;
15706;SDS011;7953;54.302;10.128;2022-07-06T10:56:31;1.23;;;0.70;;
15706;SDS011;7953;54.302;10.128;2022-07-06T10:59:02;1.57;;;0.83;;
15706;SDS011;7953;54.302;10.128;2022-07-06T11:01:29;1.10;;;0.70;;
15706;SDS011;7953;54.302;10.128;2022-07-06T11:04:04;1.97;;;0.57;;
15706;SDS011;7953;54.302;10.128;2022-07-06T11:06:33;2.33;;;0.60;;
15706;SDS011;7953;54.302;10.128;2022-07-06T11:09:02;2.67;;;0.70;;
15706;SDS011;7953;54.302;10.128;2022-07-06T11:11:38;1.83;;;0.70;;
15706;SDS011;7953;54.302;10.128;2022-07-06T11:14:10;1.20;;;0.70;;
15706;SDS011;7953;54.302;10.128;2022-07-06T11:16:39;4.93;;;0.80;;
15706;SDS011;7953;54.302;10.128;2022-07-06T11:19:26;3.13;;;0.60;;
15706;SDS011;7953;54.302;10.128;2022-07-06T11:21:53;1.57;;;0.77;;
15706;SDS011;7953;54.302;10.128;2022-07-06T11:24:24;1.43;;;0.70;;
15706;SDS011;7953;54.302;10.128;2022-07-06T11:26:52;3.60;;;1.00;;
15706;SDS011;7953;54.302;10.128;2022-07-06T11:29:20;2.23;;;0.80;;
15706;SDS011;7953;54.302;10.128;2022-07-06T11:31:49;2.10;;;0.70;;
15706;SDS011;7953;54.302;10.128;2022-07-06T11:34:17;0.97;;;0.70;;
15706;SDS011;7953;54.302;10.128;2022-07-06T11:36:46;1.83;;;0.70;;
15706;SDS011;7953;54.302;10.128;2022-07-06T11:39:13;2.63;;;0.60;;
15706;SDS011;7953;54.302;10.128;2022-07-06T11:41:42;1.60;;;0.70;;
15706;SDS011;7953;54.302;10.128;2022-07-06T11:44:09;1.50;;;0.63;;
15706;SDS011;7953;54.302;10.128;2022-07-06T11:46:36;4.90;;;1.07;;
15706;SDS011;7953;54.302;10.128;2022-07-06T11:49:04;2.27;;;0.67;;
15706;SDS011;7953;54.302;10.128;2022-07-06T11:51:33;2.50;;;1.00;;
15706;SDS011;7953;54.302;10.128;2022-07-06T11:54:09;1.33;;;0.70;;
15706;SDS011;7953;54.302;10.128;2022-07-06T11:56:37;2.67;;;0.70;;
15706;SDS011;7953;54.302;10.128;2022-07-06T11:59:12;4.47;;;0.80;;
15706;SDS011;7953;54.302;10.128;2022-07-06T12:01:40;5.00;;;0.80;;
15706;SDS011;7953;54.302;10.128;2022-07-06T12:04:09;1.90;;;0.60;;
15706;SDS011;7953;54.302;10.128;2022-07-06T12:06:37;0.77;;;0.60;;
15706;SDS011;7953;54.302;10.128;2022-07-06T12:09:04;1.93;;;0.60;;
15706;SDS011;7953;54.302;10.128;2022-07-06T12:11:32;2.70;;;0.60;;
15706;SDS011;7953;54.302;10.128;2022-07-06T12:14:01;2.10;;;1.00;;
15706;SDS011;7953;54.302;10.128;2022-07-06T12:16:31;1.00;;;0.77;;
15706;SDS011;7953;54.302;10.128;2022-07-06T12:19:01;3.20;;;0.50;;
15706;SDS011;7953;54.302;10.128;2022-07-06T12:21:29;1.67;;;0.50;;
15706;SDS011;7953;54.302;10.128;2022-07-06T12:23:57;1.67;;;0.83;;
15706;SDS011;7953;54.302;10.128;2022-07-06T12:26:24;2.80;;;0.50;;
15706;SDS011;7953;54.302;10.128;2022-07-06T12:29:00;2.93;;;0.63;;
15706;SDS011;7953;54.302;10.128;2022-07-06T12:31:32;3.17;;;0.87;;
15706;SDS011;7953;54.302;10.128;2022-07-06T12:34:00;0.97;;;0.50;;
15706;SDS011;7953;54.302;10.128;2022-07-06T12:36:27;9.73;;;1.03;;
15706;SDS011;7953;54.302;10.128;2022-07-06T12:38:54;1.07;;;0.53;;
15706;SDS011;7953;54.302;10.128;2022-07-06T12:41:29;3.87;;;1.00;;
15706;SDS011;7953;54.302;10.128;2022-07-06T12:44:05;4.13;;;0.80;;
15706;SDS011;7953;54.302;10.128;2022-07-06T12:46:35;1.97;;;0.60;;
15706;SDS011;7953;54.302;10.128;2022-07-06T12:49:11;1.57;;;0.50;;
15706;SDS011;7953;54.302;10.128;2022-07-06T12:51:56;1.17;;;0.40;;
15706;SDS011;7953;54.302;10.128;2022-07-06T12:54:25;3.37;;;0.73;;
15706;SDS011;7953;54.302;10.128;2022-07-06T12:57:00;1.50;;;0.53;;
15706;SDS011;7953;54.302;10.128;2022-07-06T12:59:29;2.30;;;0.70;;
15706;SDS011;7953;54.302;10.128;2022-07-06T13:01:59;0.83;;;0.50;;
15706;SDS011;7953;54.302;10.128;2022-07-06T13:04:27;2.73;;;0.50;;
15706;SDS011;7953;54.302;10.128;2022-07-06T13:06:56;0.77;;;0.57;;
15706;SDS011;7953;54.302;10.128;2022-07-06T13:09:24;1.97;;;0.83;;
15706;SDS011;7953;54.302;10.128;2022-07-06T13:11:51;2.27;;;0.57;;
15706;SDS011;7953;54.302;10.128;2022-07-06T13:14:19;2.87;;;0.93;;
15706;SDS011;7953;54.302;10.128;2022-07-06T13:16:46;3.33;;;0.90;;
15706;SDS011;7953;54.302;10.128;2022-07-06T13:19:15;4.00;;;0.80;;
15706;SDS011;7953;54.302;10.128;2022-07-06T13:21:42;1.20;;;0.47;;
15706;SDS011;7953;54.302;10.128;2022-07-06T13:24:10;2.63;;;0.70;;
15706;SDS011;7953;54.302;10.128;2022-07-06T13:26:37;2.03;;;0.63;;
15706;SDS011;7953;54.302;10.128;2022-07-06T13:29:04;2.33;;;0.50;;
15706;SDS011;7953;54.302;10.128;2022-07-06T13:31:32;2.63;;;0.70;;
15706;SDS011;7953;54.302;10.128;2022-07-06T13:33:59;2.97;;;0.70;;
15706;SDS011;7953;54.302;10.128;2022-07-06T13:36:27;2.63;;;0.53;;
15706;SDS011;7953;54.302;10.128;2022-07-06T13:38:54;2.57;;;0.60;;
15706;SDS011;7953;54.302;10.128;2022-07-06T13:41:21;1.77;;;0.57;;
15706;SDS011;7953;54.302;10.128;2022-07-06T13:43:47;2.53;;;0.60;;
15706;SDS011;7953;54.302;10.128;2022-07-06T13:46:14;1.63;;;0.60;;
15706;SDS011;7953;54.302;10.128;2022-07-06T13:48:42;2.40;;;0.53;;
15706;SDS011;7953;54.302;10.128;2022-07-06T13:51:10;2.57;;;0.60;;
15706;SDS011;7953;54.302;10.128;2022-07-06T13:53:38;2.23;;;0.67;;
15706;SDS011;7953;54.302;10.128;2022-07-06T13:56:05;1.67;;;0.60;;
15706;SDS011;7953;54.302;10.128;2022-07-06T13:58:33;6.10;;;0.87;;
15706;SDS011;7953;54.302;10.128;2022-07-06T14:01:00;2.43;;;0.70;;
15706;SDS011;7953;54.302;10.128;2022-07-06T14:03:26;1.37;;;0.63;;
15706;SDS011;7953;54.302;10.128;2022-07-06T14:05:55;3.20;;;0.60;;
15706;SDS011;7953;54.302;10.128;2022-07-06T14:08:23;3.90;;;0.60;;
15706;SDS011;7953;54.302;10.128;2022-07-06T14:10:51;3.30;;;0.60;;
15706;SDS011;7953;54.302;10.128;2022-07-06T14:13:19;2.67;;;0.70;;
15706;SDS011;7953;54.302;10.128;2022-07-06T14:15:46;1.77;;;0.53;;
15706;SDS011;7953;54.302;10.128;2022-07-06T14:18:14;2.07;;;0.70;;
15706;SDS011;7953;54.302;10.128;2022-07-06T14:20:42;5.27;;;0.80;;
15706;SDS011;7953;54.302;10.128;2022-07-06T14:23:10;2.50;;;0.97;;
15706;SDS011;7953;54.302;10.128;2022-07-06T14:25:37;2.07;;;0.67;;
15706;SDS011;7953;54.302;10.128;2022-07-06T14:28:05;0.93;;;0.60;;
15706;SDS011;7953;54.302;10.128;2022-07-06T14:30:32;1.00;;;0.70;;
15706;SDS011;7953;54.302;10.128;2022-07-06T14:33:01;2.77;;;0.63;;
15706;SDS011;7953;54.302;10.128;2022-07-06T14:35:32;0.93;;;0.50;;
15706;SDS011;7953;54.302;10.128;2022-07-06T14:37:59;2.30;;;0.60;;
15706;SDS011;7953;54.302;10.128;2022-07-06T14:40:26;1.57;;;0.50;;
15706;SDS011;7953;54.302;10.128;2022-07-06T14:42:53;2.73;;;0.60;;
15706;SDS011;7953;54.302;10.128;2022-07-06T14:45:22;1.53;;;0.50;;
15706;SDS011;7953;54.302;10.128;2022-07-06T14:47:49;2.87;;;0.67;;
15706;SDS011;7953;54.302;10.128;2022-07-06T14:50:16;1.63;;;0.63;;
15706;SDS011;7953;54.302;10.128;2022-07-06T14:52:43;1.13;;;0.50;;
15706;SDS011;7953;54.302;10.128;2022-07-06T14:55:10;3.83;;;0.77;;
15706;SDS011;7953;54.302;10.128;2022-07-06T14:57:37;1.53;;;0.57;;